Tejo Alges — CQIL6 — position and weather

sailwx.info

Track history (hours):
 
Tides and Currents Weather Stations Pressure Air Temp Water Temp Dewpoint Dewpoint Depression Visibility Wind Speed Wind Dir Waves Ship Positions

Tejo Alges

Last reported at 2017-Sep-20 23:08 UTC. Time now 2017-Sep-22 02:52 UTC.
Position N 37°56' W 000°12'.

Length 90 m; draft 6 m.

Type: Cargo ship. MMSI: 205806994.

Date/timePositionNaut miles runAvg speedWind from/ knotsBaromVisibWave heightAir tempDewpointWater temp
2017-Sep-20 23:08N 37°56' W 000°12'111.1
2017-Sep-20 23:00N 37°55' W 000°13'1711.1
2017-Sep-20 21:30N 37°41' W 000°25'511.2
2017-Sep-20 21:00N 37°37' W 000°28'611.4
2017-Sep-20 20:27N 37°32' W 000°33'611.3
2017-Sep-20 19:54N 37°28' W 000°39'511.3
2017-Sep-20 19:28N 37°24' W 000°44'511.1
2017-Sep-20 18:59N 37°21' W 000°49'610.7
2017-Sep-20 18:27N 37°17' W 000°54'810.9
2017-Sep-20 17:41N 37°11' W 001°02'411.1
2017-Sep-20 17:21N 37°09' W 001°05'811.1
2017-Sep-20 16:40N 37°04' W 001°12'20711.2
2017-Sep-19 22:17N 35°56' W 005°15'310.8
2017-Sep-19 22:00N 35°54' W 005°18'1 1.6
2017-Sep-19 21:29N 35°54' W 005°19'0 0.0
2017-Sep-19 20:59N 35°54' W 005°19'0 0.0
2017-Sep-19 20:29N 35°54' W 005°19'0 0.0
2017-Sep-19 19:59N 35°54' W 005°19'0 0.0
2017-Sep-19 19:29N 35°54' W 005°19'0 0.0
2017-Sep-19 18:59N 35°54' W 005°19'0 0.0
2017-Sep-19 18:29N 35°54' W 005°19'0 0.0
2017-Sep-19 17:59N 35°54' W 005°19'0 0.0
2017-Sep-19 17:29N 35°54' W 005°19'0 0.9
2017-Sep-19 17:00N 35°54' W 005°19'1 1.5
2017-Sep-19 16:30N 35°55' W 005°19'1 2.1
2017-Sep-19 15:59N 35°55' W 005°20'0 0.2
2017-Sep-19 15:29N 35°55' W 005°20'0 0.1
2017-Sep-19 15:00N 35°55' W 005°20'1 1.3
2017-Sep-19 14:31N 35°55' W 005°20'5 9.5
2017-Sep-19 14:00N 35°57' W 005°26'17610.8
2017-Sep-18 21:45N 36°31' W 008°59'711.6
2017-Sep-18 21:11N 36°33' W 009°07'211.7
2017-Sep-18 21:00N 36°33' W 009°10'4210.7
2017-Sep-18 17:05N 37°08' W 009°39'211.5
2017-Sep-18 16:57N 37°10' W 009°39'7211.3
2017-Sep-18 10:38N 38°20' W 009°59'211.4
2017-Sep-18 10:30N 38°21' W 009°59'611.9
2017-Sep-18 10:00N 38°27' W 010°01'2812.0
2017-Sep-18 07:42N 38°54' W 010°06'211.7
2017-Sep-18 07:30N 38°56' W 010°06'611.5
2017-Sep-18 07:01N 39°02' W 010°06'611.7
2017-Sep-18 06:30N 39°08' W 010°06'611.5
2017-Sep-18 05:59N 39°14' W 010°06'  
2017-Sep-15 12:00N 49°45' W 003°35'510.0
2017-Sep-15 11:30N 49°47' W 003°28'510.4
2017-Sep-15 11:00N 49°50' W 003°21'610.7
2017-Sep-15 10:29N 49°53' W 003°14'711.3
2017-Sep-15 09:51N 49°56' W 003°04'411.5
2017-Sep-15 09:30N 49°58' W 002°59'4511.3
2017-Sep-15 05:30N 50°11' W 001°51'5 9.7
2017-Sep-15 04:56N 50°13' W 001°43'56 9.4
2017-Sep-14 22:57N 50°28' W 000°18'511.6
2017-Sep-14 22:30N 50°29' W 000°10'611.9
2017-Sep-14 22:00N 50°31' W 000°01'612.0
2017-Sep-14 21:30N 50°33' E 000°08'711.7
2017-Sep-14 20:57N 50°35' E 000°18'611.4
2017-Sep-14 20:25N 50°36' E 000°27'511.2
2017-Sep-14 20:00N 50°38' E 000°33'611.2
2017-Sep-14 19:30N 50°42' E 000°41'510.8
2017-Sep-14 19:00N 50°45' E 000°47'610.3
2017-Sep-14 18:28N 50°48' E 000°55'15 9.9
2017-Sep-14 17:00N 50°57' E 001°13'5 9.1
2017-Sep-14 16:29N 50°60' E 001°19'4 9.2
2017-Sep-14 16:00N 51°03' E 001°24'510.2
2017-Sep-14 15:30N 51°06' E 001°30'510.8
2017-Sep-14 15:00N 51°09' E 001°37'611.1
2017-Sep-14 14:30N 51°13' E 001°44'611.4
2017-Sep-14 14:00N 51°18' E 001°49'510.9
2017-Sep-14 13:30N 51°22' E 001°54'510.5
2017-Sep-14 13:01N 51°26' E 001°59'510.0
2017-Sep-14 12:30N 51°30' E 002°04'5 9.6
2017-Sep-14 11:59N 51°34' E 002°09'4 9.0
2017-Sep-14 11:30N 51°37' E 002°14'87 7.4
2017-Sep-13 23:50N 52°31' E 004°04'3 6.5
2017-Sep-13 23:21N 52°31' E 004°09'3 6.7
2017-Sep-13 22:54N 52°31' E 004°14'2 6.4
2017-Sep-13 22:30N 52°30' E 004°18'3 6.5
2017-Sep-13 22:00N 52°30' E 004°23'4 7.7
2017-Sep-13 21:30N 52°28' E 004°29'4 7.9
2017-Sep-13 21:01N 52°28' E 004°36'0 0.9
2017-Sep-13 20:28N 52°28' E 004°36'0 0.0
2017-Sep-13 19:58N 52°28' E 004°36'0 0.0
2017-Sep-13 19:28N 52°28' E 004°36'0 0.0
2017-Sep-13 18:52N 52°28' E 004°36'0 0.0
2017-Sep-13 18:28N 52°28' E 004°36'0 0.0
2017-Sep-13 17:55N 52°28' E 004°36'0 0.0
2017-Sep-13 17:28N 52°28' E 004°36'0 0.0
2017-Sep-13 16:58N 52°28' E 004°36'0 0.0
2017-Sep-13 16:25N 52°28' E 004°36'0 0.0
2017-Sep-13 15:58N 52°28' E 004°36'0 0.0
2017-Sep-13 15:28N 52°28' E 004°36'0 0.0
2017-Sep-13 14:58N 52°28' E 004°36'0 0.0
2017-Sep-13 14:28N 52°28' E 004°36'0 0.0
2017-Sep-13 13:58N 52°28' E 004°36'0 0.0
2017-Sep-13 13:28N 52°28' E 004°36'0 0.0
2017-Sep-13 12:58N 52°28' E 004°36'0 0.0
2017-Sep-13 12:28N 52°28' E 004°36'0 0.0
2017-Sep-13 11:52N 52°28' E 004°36'0 0.0
2017-Sep-13 11:28N 52°28' E 004°36'0 0.0
2017-Sep-13 10:58N 52°28' E 004°36'0 0.0
2017-Sep-13 10:28N 52°28' E 004°36'0 0.0
2017-Sep-13 09:58N 52°28' E 004°36'0 0.0
2017-Sep-13 09:28N 52°28' E 004°36'0 0.0
2017-Sep-13 08:58N 52°28' E 004°36'0 0.0
2017-Sep-13 08:28N 52°28' E 004°36'0 0.0
2017-Sep-13 07:58N 52°28' E 004°36'0 0.0
2017-Sep-13 07:25N 52°28' E 004°36'0 0.0
2017-Sep-13 06:58N 52°28' E 004°36'0 0.0
2017-Sep-13 06:28N 52°28' E 004°36'0 0.0
2017-Sep-13 05:58N 52°28' E 004°36'0 0.0
2017-Sep-13 05:28N 52°28' E 004°36'0 0.0
2017-Sep-13 04:58N 52°28' E 004°36'0 0.0
2017-Sep-13 04:28N 52°28' E 004°36'0 0.0
2017-Sep-13 03:58N 52°28' E 004°36'0 0.0
2017-Sep-13 03:28N 52°28' E 004°36'0 0.0
2017-Sep-13 02:58N 52°28' E 004°36'0 0.0
2017-Sep-13 02:28N 52°28' E 004°36'0 0.0
2017-Sep-13 01:58N 52°28' E 004°36'0 0.0
2017-Sep-13 01:28N 52°28' E 004°36'0 0.0
2017-Sep-13 00:58N 52°28' E 004°36'0 0.0
2017-Sep-13 00:28N 52°28' E 004°36'0 0.0
2017-Sep-12 23:58N 52°28' E 004°36'0 0.0
2017-Sep-12 23:28N 52°28' E 004°36'0 0.0
2017-Sep-12 22:58N 52°28' E 004°36'0 0.0
2017-Sep-12 22:28N 52°28' E 004°36'0 0.0
2017-Sep-12 21:58N 52°28' E 004°36'0 0.0
2017-Sep-12 21:28N 52°28' E 004°36'0 0.0
2017-Sep-12 20:58N 52°28' E 004°36'0 0.0
2017-Sep-12 20:28N 52°28' E 004°36'0 0.0
2017-Sep-12 19:58N 52°28' E 004°36'0 0.0
2017-Sep-12 19:28N 52°28' E 004°36'0 0.0
2017-Sep-12 18:58N 52°28' E 004°36'0 0.0
2017-Sep-12 18:28N 52°28' E 004°36'0 0.0
2017-Sep-12 17:58N 52°28' E 004°36'0 0.0
2017-Sep-12 17:28N 52°28' E 004°36'0 0.0
2017-Sep-12 16:58N 52°28' E 004°36'0 0.0
2017-Sep-12 16:28N 52°28' E 004°36'0 0.0
2017-Sep-12 15:58N 52°28' E 004°36'0 0.0
2017-Sep-12 15:28N 52°28' E 004°36'0 0.0
2017-Sep-12 14:58N 52°28' E 004°36'0 0.1
2017-Sep-12 14:28N 52°28' E 004°36'0 0.0
2017-Sep-12 13:58N 52°28' E 004°36'0 0.0
2017-Sep-12 13:28N 52°28' E 004°36'0 0.0
2017-Sep-12 12:58N 52°28' E 004°36'0 0.0
2017-Sep-12 12:28N 52°28' E 004°36'0 0.0
2017-Sep-12 11:58N 52°28' E 004°36'0 0.0
2017-Sep-12 11:28N 52°28' E 004°36'0 0.0
2017-Sep-12 10:55N 52°28' E 004°36'0 0.0
2017-Sep-12 10:28N 52°28' E 004°36'0 0.0
2017-Sep-12 10:00N 52°28' E 004°36'2 4.4
2017-Sep-12 09:30N 52°28' E 004°33'611.8
2017-Sep-12 09:00N 52°28' E 004°23'612.6
2017-Sep-12 08:30N 52°29' E 004°13'510.8
2017-Sep-12 08:00N 52°33' E 004°07'510.4
2017-Sep-12 07:30N 52°38' E 004°06'2 4.8
2017-Sep-12 07:00N 52°40' E 004°08'0 0.9
2017-Sep-12 06:30N 52°40' E 004°09'1 1.0
2017-Sep-12 06:00N 52°39' E 004°09'0 0.9
2017-Sep-12 05:30N 52°39' E 004°09'0 0.7
2017-Sep-12 05:00N 52°39' E 004°09'0 0.6
2017-Sep-12 04:30N 52°39' E 004°10'0 0.9
2017-Sep-12 04:00N 52°39' E 004°10'0 0.8
2017-Sep-12 03:30N 52°39' E 004°11'1 2.6
2017-Sep-12 03:00N 52°39' E 004°09'3 5.9
2017-Sep-12 02:30N 52°38' E 004°04'2 4.0
2017-Sep-12 01:59N 52°36' E 004°02'1 1.7
2017-Sep-12 01:29N 52°37' E 004°03'1 1.6
2017-Sep-12 01:00N 52°37' E 004°04'1 1.6
2017-Sep-12 00:30N 52°38' E 004°05'1 2.1
2017-Sep-12 00:00N 52°39' E 004°06'1 1.7
2017-Sep-11 23:30N 52°39' E 004°07'1 1.2
2017-Sep-11 23:00N 52°40' E 004°08'1 1.6
2017-Sep-11 22:30N 52°40' E 004°09'1 2.5
2017-Sep-11 22:00N 52°39' E 004°07'1 1.9
2017-Sep-11 21:30N 52°40' E 004°08'1 1.2
2017-Sep-11 21:00N 52°40' E 004°09'1 1.1
2017-Sep-11 20:30N 52°41' E 004°10'0 0.5
2017-Sep-11 20:00N 52°41' E 004°10'1 1.1
2017-Sep-11 19:30N 52°42' E 004°10'1 1.3
2017-Sep-11 19:00N 52°42' E 004°11'0 0.7
2017-Sep-11 18:30N 52°42' E 004°11'0 0.6
2017-Sep-11 18:00N 52°43' E 004°11'0 0.5
2017-Sep-11 17:30N 52°43' E 004°12'0 0.2
2017-Sep-11 16:31N 52°43' E 004°12'0 0.4
2017-Sep-11 16:30N 52°43' E 004°12'0 0.6
2017-Sep-11 16:00N 52°43' E 004°12'1 1.1
2017-Sep-11 15:30N 52°44' E 004°13'0 0.6
2017-Sep-11 15:00N 52°44' E 004°13'0 0.9
2017-Sep-11 14:30N 52°44' E 004°14'1 1.6
2017-Sep-11 14:00N 52°45' E 004°15'0 0.8
2017-Sep-11 13:30N 52°44' E 004°14'3 5.5
2017-Sep-11 13:00N 52°42' E 004°11'3 5.1
2017-Sep-11 12:30N 52°40' E 004°09'3 5.1
2017-Sep-11 12:00N 52°38' E 004°06'2 3.2
2017-Sep-11 11:30N 52°37' E 004°04'1 1.1
2017-Sep-11 11:00N 52°38' E 004°04'0 0.8
2017-Sep-11 10:30N 52°38' E 004°05'1 1.1
2017-Sep-11 10:00N 52°38' E 004°06'0 0.9
2017-Sep-11 09:30N 52°39' E 004°06'1 1.5
2017-Sep-11 09:00N 52°39' E 004°07'0 1.0
2017-Sep-11 08:30N 52°40' E 004°07'0 0.5
2017-Sep-11 08:00N 52°40' E 004°08'0 0.5
2017-Sep-11 07:30N 52°40' E 004°08'0 0.4
2017-Sep-11 07:00N 52°40' E 004°08'0 0.6
2017-Sep-11 06:30N 52°40' E 004°08'0 0.5
2017-Sep-11 06:00N 52°41' E 004°08'0 0.1
2017-Sep-11 05:30N 52°41' E 004°08'0 0.1
2017-Sep-11 05:00N 52°41' E 004°08'0 0.4
2017-Sep-11 04:30N 52°41' E 004°09'0 0.2
2017-Sep-11 04:00N 52°41' E 004°09'0 0.4
2017-Sep-11 03:30N 52°41' E 004°09'0 0.6
2017-Sep-11 03:00N 52°41' E 004°09'1 1.2
2017-Sep-11 02:30N 52°42' E 004°10'0 0.7
2017-Sep-11 02:00N 52°42' E 004°10'0 1.0
2017-Sep-11 01:30N 52°42' E 004°11'0 0.6
2017-Sep-11 01:00N 52°42' E 004°11'1 1.1
2017-Sep-11 00:30N 52°43' E 004°11'1 1.1
2017-Sep-11 00:00N 52°43' E 004°12'1 1.3
2017-Sep-10 23:30N 52°43' E 004°13'  
Track history (hours):
 
Tides and Currents Weather Stations Pressure Air Temp Water Temp Dewpoint Dewpoint Depression Visibility Wind Speed Wind Dir Waves Ship Positions

Tejo Alges

Last reported at 2017-Sep-20 23:08 UTC. Time now 2017-Sep-22 02:52 UTC.
Position N 37°56' W 000°12'.

Length 90 m; draft 6 m.

Type: Cargo ship. MMSI: 205806994.

Date/timePositionNaut miles runAvg speedWind from/ knotsBaromVisibWave heightAir tempDewpointWater temp
2017-Sep-20 23:08N 37°56' W 000°12'111.1
2017-Sep-20 23:00N 37°55' W 000°13'1711.1
2017-Sep-20 21:30N 37°41' W 000°25'511.2
2017-Sep-20 21:00N 37°37' W 000°28'611.4
2017-Sep-20 20:27N 37°32' W 000°33'611.3
2017-Sep-20 19:54N 37°28' W 000°39'511.3
2017-Sep-20 19:28N 37°24' W 000°44'511.1
2017-Sep-20 18:59N 37°21' W 000°49'610.7
2017-Sep-20 18:27N 37°17' W 000°54'810.9
2017-Sep-20 17:41N 37°11' W 001°02'411.1
2017-Sep-20 17:21N 37°09' W 001°05'811.1
2017-Sep-20 16:40N 37°04' W 001°12'20711.2
2017-Sep-19 22:17N 35°56' W 005°15'310.8
2017-Sep-19 22:00N 35°54' W 005°18'1 1.6
2017-Sep-19 21:29N 35°54' W 005°19'0 0.0
2017-Sep-19 20:59N 35°54' W 005°19'0 0.0
2017-Sep-19 20:29N 35°54' W 005°19'0 0.0
2017-Sep-19 19:59N 35°54' W 005°19'0 0.0
2017-Sep-19 19:29N 35°54' W 005°19'0 0.0
2017-Sep-19 18:59N 35°54' W 005°19'0 0.0
2017-Sep-19 18:29N 35°54' W 005°19'0 0.0
2017-Sep-19 17:59N 35°54' W 005°19'0 0.0
2017-Sep-19 17:29N 35°54' W 005°19'0 0.9
2017-Sep-19 17:00N 35°54' W 005°19'1 1.5
2017-Sep-19 16:30N 35°55' W 005°19'1 2.1
2017-Sep-19 15:59N 35°55' W 005°20'0 0.2
2017-Sep-19 15:29N 35°55' W 005°20'0 0.1
2017-Sep-19 15:00N 35°55' W 005°20'1 1.3
2017-Sep-19 14:31N 35°55' W 005°20'5 9.5
2017-Sep-19 14:00N 35°57' W 005°26'17610.8
2017-Sep-18 21:45N 36°31' W 008°59'711.6
2017-Sep-18 21:11N 36°33' W 009°07'211.7
2017-Sep-18 21:00N 36°33' W 009°10'4210.7
2017-Sep-18 17:05N 37°08' W 009°39'211.5
2017-Sep-18 16:57N 37°10' W 009°39'7211.3
2017-Sep-18 10:38N 38°20' W 009°59'211.4
2017-Sep-18 10:30N 38°21' W 009°59'611.9
2017-Sep-18 10:00N 38°27' W 010°01'2812.0
2017-Sep-18 07:42N 38°54' W 010°06'211.7
2017-Sep-18 07:30N 38°56' W 010°06'611.5
2017-Sep-18 07:01N 39°02' W 010°06'611.7
2017-Sep-18 06:30N 39°08' W 010°06'611.5
2017-Sep-18 05:59N 39°14' W 010°06'  
2017-Sep-15 12:00N 49°45' W 003°35'510.0
2017-Sep-15 11:30N 49°47' W 003°28'510.4
2017-Sep-15 11:00N 49°50' W 003°21'610.7
2017-Sep-15 10:29N 49°53' W 003°14'711.3
2017-Sep-15 09:51N 49°56' W 003°04'411.5
2017-Sep-15 09:30N 49°58' W 002°59'4511.3
2017-Sep-15 05:30N 50°11' W 001°51'5 9.7
2017-Sep-15 04:56N 50°13' W 001°43'56 9.4
2017-Sep-14 22:57N 50°28' W 000°18'511.6
2017-Sep-14 22:30N 50°29' W 000°10'611.9
2017-Sep-14 22:00N 50°31' W 000°01'612.0
2017-Sep-14 21:30N 50°33' E 000°08'711.7
2017-Sep-14 20:57N 50°35' E 000°18'611.4
2017-Sep-14 20:25N 50°36' E 000°27'511.2
2017-Sep-14 20:00N 50°38' E 000°33'611.2
2017-Sep-14 19:30N 50°42' E 000°41'510.8
2017-Sep-14 19:00N 50°45' E 000°47'610.3
2017-Sep-14 18:28N 50°48' E 000°55'15 9.9
2017-Sep-14 17:00N 50°57' E 001°13'5 9.1
2017-Sep-14 16:29N 50°60' E 001°19'4 9.2
2017-Sep-14 16:00N 51°03' E 001°24'510.2
2017-Sep-14 15:30N 51°06' E 001°30'510.8
2017-Sep-14 15:00N 51°09' E 001°37'611.1
2017-Sep-14 14:30N 51°13' E 001°44'611.4
2017-Sep-14 14:00N 51°18' E 001°49'510.9
2017-Sep-14 13:30N 51°22' E 001°54'510.5
2017-Sep-14 13:01N 51°26' E 001°59'510.0
2017-Sep-14 12:30N 51°30' E 002°04'5 9.6
2017-Sep-14 11:59N 51°34' E 002°09'4 9.0
2017-Sep-14 11:30N 51°37' E 002°14'87 7.4
2017-Sep-13 23:50N 52°31' E 004°04'3 6.5
2017-Sep-13 23:21N 52°31' E 004°09'3 6.7
2017-Sep-13 22:54N 52°31' E 004°14'2 6.4
2017-Sep-13 22:30N 52°30' E 004°18'3 6.5
2017-Sep-13 22:00N 52°30' E 004°23'4 7.7
2017-Sep-13 21:30N 52°28' E 004°29'4 7.9
2017-Sep-13 21:01N 52°28' E 004°36'0 0.9
2017-Sep-13 20:28N 52°28' E 004°36'0 0.0
2017-Sep-13 19:58N 52°28' E 004°36'0 0.0
2017-Sep-13 19:28N 52°28' E 004°36'0 0.0
2017-Sep-13 18:52N 52°28' E 004°36'0 0.0
2017-Sep-13 18:28N 52°28' E 004°36'0 0.0
2017-Sep-13 17:55N 52°28' E 004°36'0 0.0
2017-Sep-13 17:28N 52°28' E 004°36'0 0.0
2017-Sep-13 16:58N 52°28' E 004°36'0 0.0
2017-Sep-13 16:25N 52°28' E 004°36'0 0.0
2017-Sep-13 15:58N 52°28' E 004°36'0 0.0
2017-Sep-13 15:28N 52°28' E 004°36'0 0.0
2017-Sep-13 14:58N 52°28' E 004°36'0 0.0
2017-Sep-13 14:28N 52°28' E 004°36'0 0.0
2017-Sep-13 13:58N 52°28' E 004°36'0 0.0
2017-Sep-13 13:28N 52°28' E 004°36'0 0.0
2017-Sep-13 12:58N 52°28' E 004°36'0 0.0
2017-Sep-13 12:28N 52°28' E 004°36'0 0.0
2017-Sep-13 11:52N 52°28' E 004°36'0 0.0
2017-Sep-13 11:28N 52°28' E 004°36'0 0.0
2017-Sep-13 10:58N 52°28' E 004°36'0 0.0
2017-Sep-13 10:28N 52°28' E 004°36'0 0.0
2017-Sep-13 09:58N 52°28' E 004°36'0 0.0
2017-Sep-13 09:28N 52°28' E 004°36'0 0.0
2017-Sep-13 08:58N 52°28' E 004°36'0 0.0
2017-Sep-13 08:28N 52°28' E 004°36'0 0.0
2017-Sep-13 07:58N 52°28' E 004°36'0 0.0
2017-Sep-13 07:25N 52°28' E 004°36'0 0.0
2017-Sep-13 06:58N 52°28' E 004°36'0 0.0
2017-Sep-13 06:28N 52°28' E 004°36'0 0.0
2017-Sep-13 05:58N 52°28' E 004°36'0 0.0
2017-Sep-13 05:28N 52°28' E 004°36'0 0.0
2017-Sep-13 04:58N 52°28' E 004°36'0 0.0
2017-Sep-13 04:28N 52°28' E 004°36'0 0.0
2017-Sep-13 03:58N 52°28' E 004°36'0 0.0
2017-Sep-13 03:28N 52°28' E 004°36'0 0.0
2017-Sep-13 02:58N 52°28' E 004°36'0 0.0
2017-Sep-13 02:28N 52°28' E 004°36'0 0.0
2017-Sep-13 01:58N 52°28' E 004°36'0 0.0
2017-Sep-13 01:28N 52°28' E 004°36'0 0.0
2017-Sep-13 00:58N 52°28' E 004°36'0 0.0
2017-Sep-13 00:28N 52°28' E 004°36'0 0.0
2017-Sep-12 23:58N 52°28' E 004°36'0 0.0
2017-Sep-12 23:28N 52°28' E 004°36'0 0.0
2017-Sep-12 22:58N 52°28' E 004°36'0 0.0
2017-Sep-12 22:28N 52°28' E 004°36'0 0.0
2017-Sep-12 21:58N 52°28' E 004°36'0 0.0
2017-Sep-12 21:28N 52°28' E 004°36'0 0.0
2017-Sep-12 20:58N 52°28' E 004°36'0 0.0
2017-Sep-12 20:28N 52°28' E 004°36'0 0.0
2017-Sep-12 19:58N 52°28' E 004°36'0 0.0
2017-Sep-12 19:28N 52°28' E 004°36'0 0.0
2017-Sep-12 18:58N 52°28' E 004°36'0 0.0
2017-Sep-12 18:28N 52°28' E 004°36'0 0.0
2017-Sep-12 17:58N 52°28' E 004°36'0 0.0
2017-Sep-12 17:28N 52°28' E 004°36'0 0.0
2017-Sep-12 16:58N 52°28' E 004°36'0 0.0
2017-Sep-12 16:28N 52°28' E 004°36'0 0.0
2017-Sep-12 15:58N 52°28' E 004°36'0 0.0
2017-Sep-12 15:28N 52°28' E 004°36'0 0.0
2017-Sep-12 14:58N 52°28' E 004°36'0 0.1
2017-Sep-12 14:28N 52°28' E 004°36'0 0.0
2017-Sep-12 13:58N 52°28' E 004°36'0 0.0
2017-Sep-12 13:28N 52°28' E 004°36'0 0.0
2017-Sep-12 12:58N 52°28' E 004°36'0 0.0
2017-Sep-12 12:28N 52°28' E 004°36'0 0.0
2017-Sep-12 11:58N 52°28' E 004°36'0 0.0
2017-Sep-12 11:28N 52°28' E 004°36'0 0.0
2017-Sep-12 10:55N 52°28' E 004°36'0 0.0
2017-Sep-12 10:28N 52°28' E 004°36'0 0.0
2017-Sep-12 10:00N 52°28' E 004°36'2 4.4
2017-Sep-12 09:30N 52°28' E 004°33'611.8
2017-Sep-12 09:00N 52°28' E 004°23'612.6
2017-Sep-12 08:30N 52°29' E 004°13'510.8
2017-Sep-12 08:00N 52°33' E 004°07'510.4
2017-Sep-12 07:30N 52°38' E 004°06'2 4.8
2017-Sep-12 07:00N 52°40' E 004°08'0 0.9
2017-Sep-12 06:30N 52°40' E 004°09'1 1.0
2017-Sep-12 06:00N 52°39' E 004°09'0 0.9
2017-Sep-12 05:30N 52°39' E 004°09'0 0.7
2017-Sep-12 05:00N 52°39' E 004°09'0 0.6
2017-Sep-12 04:30N 52°39' E 004°10'0 0.9
2017-Sep-12 04:00N 52°39' E 004°10'0 0.8
2017-Sep-12 03:30N 52°39' E 004°11'1 2.6
2017-Sep-12 03:00N 52°39' E 004°09'3 5.9
2017-Sep-12 02:30N 52°38' E 004°04'2 4.0
2017-Sep-12 01:59N 52°36' E 004°02'1 1.7
2017-Sep-12 01:29N 52°37' E 004°03'1 1.6
2017-Sep-12 01:00N 52°37' E 004°04'1 1.6
2017-Sep-12 00:30N 52°38' E 004°05'1 2.1
2017-Sep-12 00:00N 52°39' E 004°06'1 1.7
2017-Sep-11 23:30N 52°39' E 004°07'1 1.2
2017-Sep-11 23:00N 52°40' E 004°08'1 1.6
2017-Sep-11 22:30N 52°40' E 004°09'1 2.5
2017-Sep-11 22:00N 52°39' E 004°07'1 1.9
2017-Sep-11 21:30N 52°40' E 004°08'1 1.2
2017-Sep-11 21:00N 52°40' E 004°09'1 1.1
2017-Sep-11 20:30N 52°41' E 004°10'0 0.5
2017-Sep-11 20:00N 52°41' E 004°10'1 1.1
2017-Sep-11 19:30N 52°42' E 004°10'1 1.3
2017-Sep-11 19:00N 52°42' E 004°11'0 0.7
2017-Sep-11 18:30N 52°42' E 004°11'0 0.6
2017-Sep-11 18:00N 52°43' E 004°11'0 0.5
2017-Sep-11 17:30N 52°43' E 004°12'0 0.2
2017-Sep-11 16:31N 52°43' E 004°12'0 0.4
2017-Sep-11 16:30N 52°43' E 004°12'0 0.6
2017-Sep-11 16:00N 52°43' E 004°12'1 1.1
2017-Sep-11 15:30N 52°44' E 004°13'0 0.6
2017-Sep-11 15:00N 52°44' E 004°13'0 0.9
2017-Sep-11 14:30N 52°44' E 004°14'1 1.6
2017-Sep-11 14:00N 52°45' E 004°15'0 0.8
2017-Sep-11 13:30N 52°44' E 004°14'3 5.5
2017-Sep-11 13:00N 52°42' E 004°11'3 5.1
2017-Sep-11 12:30N 52°40' E 004°09'3 5.1
2017-Sep-11 12:00N 52°38' E 004°06'2 3.2
2017-Sep-11 11:30N 52°37' E 004°04'1 1.1
2017-Sep-11 11:00N 52°38' E 004°04'0 0.8
2017-Sep-11 10:30N 52°38' E 004°05'1 1.1
2017-Sep-11 10:00N 52°38' E 004°06'0 0.9
2017-Sep-11 09:30N 52°39' E 004°06'1 1.5
2017-Sep-11 09:00N 52°39' E 004°07'0 1.0
2017-Sep-11 08:30N 52°40' E 004°07'0 0.5
2017-Sep-11 08:00N 52°40' E 004°08'0 0.5
2017-Sep-11 07:30N 52°40' E 004°08'0 0.4
2017-Sep-11 07:00N 52°40' E 004°08'0 0.6
2017-Sep-11 06:30N 52°40' E 004°08'0 0.5
2017-Sep-11 06:00N 52°41' E 004°08'0 0.1
2017-Sep-11 05:30N 52°41' E 004°08'0 0.1
2017-Sep-11 05:00N 52°41' E 004°08'0 0.4
2017-Sep-11 04:30N 52°41' E 004°09'0 0.2
2017-Sep-11 04:00N 52°41' E 004°09'0 0.4
2017-Sep-11 03:30N 52°41' E 004°09'0 0.6
2017-Sep-11 03:00N 52°41' E 004°09'1 1.2
2017-Sep-11 02:30N 52°42' E 004°10'0 0.7
2017-Sep-11 02:00N 52°42' E 004°10'0 1.0
2017-Sep-11 01:30N 52°42' E 004°11'0 0.6
2017-Sep-11 01:00N 52°42' E 004°11'1 1.1
2017-Sep-11 00:30N 52°43' E 004°11'1 1.1
2017-Sep-11 00:00N 52°43' E 004°12'1 1.3
2017-Sep-10 23:30N 52°43' E 004°13'  

Dump ship's entire track history